sensor_id;sensor_type;location;lat;lon;timestamp;pressure;altitude;pressure_sealevel;temperature;humidity
15750;BME280;7976;52.526;13.326;2023-04-07T00:01:50;101537.56;;;7.88;50.77
15750;BME280;7976;52.526;13.326;2023-04-07T00:04:18;101528.06;;;7.85;50.90
15750;BME280;7976;52.526;13.326;2023-04-07T00:06:45;101526.34;;;7.83;51.07
15750;BME280;7976;52.526;13.326;2023-04-07T00:09:12;101535.94;;;7.78;50.86
15750;BME280;7976;52.526;13.326;2023-04-07T00:11:38;101530.75;;;7.78;50.89
15750;BME280;7976;52.526;13.326;2023-04-07T00:14:06;101525.63;;;7.72;51.14
15750;BME280;7976;52.526;13.326;2023-04-07T00:16:33;101538.59;;;7.75;50.94
15750;BME280;7976;52.526;13.326;2023-04-07T00:19:00;101539.50;;;7.71;51.00
15750;BME280;7976;52.526;13.326;2023-04-07T00:21:28;101530.88;;;7.65;51.47
15750;BME280;7976;52.526;13.326;2023-04-07T00:23:55;101539.63;;;7.63;51.56
15750;BME280;7976;52.526;13.326;2023-04-07T00:26:22;101531.84;;;7.57;51.44
15750;BME280;7976;52.526;13.326;2023-04-07T00:28:50;101532.81;;;7.51;51.87
15750;BME280;7976;52.526;13.326;2023-04-07T00:31:17;101534.59;;;7.48;52.03
15750;BME280;7976;52.526;13.326;2023-04-07T00:33:43;101529.44;;;7.45;52.09
15750;BME280;7976;52.526;13.326;2023-04-07T00:36:12;101525.13;;;7.41;51.96
15750;BME280;7976;52.526;13.326;2023-04-07T00:38:41;101525.16;;;7.38;52.07
15750;BME280;7976;52.526;13.326;2023-04-07T00:41:08;101521.75;;;7.33;51.98
15750;BME280;7976;52.526;13.326;2023-04-07T00:43:35;101532.22;;;7.30;52.03
15750;BME280;7976;52.526;13.326;2023-04-07T00:46:02;101528.75;;;7.28;51.93
15750;BME280;7976;52.526;13.326;2023-04-07T00:48:29;101520.97;;;7.25;51.91
15750;BME280;7976;52.526;13.326;2023-04-07T00:50:56;101524.47;;;7.22;51.82
15750;BME280;7976;52.526;13.326;2023-04-07T00:53:23;101520.16;;;7.20;51.93
15750;BME280;7976;52.526;13.326;2023-04-07T00:55:52;101522.75;;;7.18;52.05
15750;BME280;7976;52.526;13.326;2023-04-07T00:58:19;101518.41;;;7.20;52.03
15750;BME280;7976;52.526;13.326;2023-04-07T01:00:50;101512.34;;;7.18;52.04
15750;BME280;7976;52.526;13.326;2023-04-07T01:03:29;101516.75;;;7.15;51.99
15750;BME280;7976;52.526;13.326;2023-04-07T01:06:01;101509.81;;;7.14;51.73
15750;BME280;7976;52.526;13.326;2023-04-07T01:08:41;101508.97;;;7.10;51.82
15750;BME280;7976;52.526;13.326;2023-04-07T01:11:24;101503.81;;;7.07;51.85
15750;BME280;7976;52.526;13.326;2023-04-07T01:13:57;101503.84;;;7.04;51.65
15750;BME280;7976;52.526;13.326;2023-04-07T01:16:34;101500.41;;;7.01;51.37
15750;BME280;7976;52.526;13.326;2023-04-07T01:19:13;101496.94;;;7.00;51.61
15750;BME280;7976;52.526;13.326;2023-04-07T01:21:52;101490.88;;;7.01;51.74
15750;BME280;7976;52.526;13.326;2023-04-07T01:24:45;101493.47;;;7.03;51.63
15750;BME280;7976;52.526;13.326;2023-04-07T01:27:30;101495.22;;;7.01;51.55
15750;BME280;7976;52.526;13.326;2023-04-07T01:30:04;101491.72;;;7.02;51.65
15750;BME280;7976;52.526;13.326;2023-04-07T01:32:36;101483.91;;;7.03;51.78
15750;BME280;7976;52.526;13.326;2023-04-07T01:35:05;101494.31;;;7.05;51.77
15750;BME280;7976;52.526;13.326;2023-04-07T01:37:36;101487.44;;;6.99;51.61
15750;BME280;7976;52.526;13.326;2023-04-07T01:40:07;101484.81;;;6.99;51.62
15750;BME280;7976;52.526;13.326;2023-04-07T01:42:37;101491.78;;;6.96;51.69
15750;BME280;7976;52.526;13.326;2023-04-07T01:45:08;101486.63;;;6.93;51.61
15750;BME280;7976;52.526;13.326;2023-04-07T01:47:36;101487.50;;;6.90;52.09
15750;BME280;7976;52.526;13.326;2023-04-07T01:50:06;101489.28;;;6.90;51.78
15750;BME280;7976;52.526;13.326;2023-04-07T01:52:35;101489.28;;;6.87;51.91
15750;BME280;7976;52.526;13.326;2023-04-07T01:55:02;101485.84;;;6.85;52.09
15750;BME280;7976;52.526;13.326;2023-04-07T01:57:31;101481.50;;;6.85;52.02
15750;BME280;7976;52.526;13.326;2023-04-07T02:00:06;101488.44;;;6.83;51.91
15750;BME280;7976;52.526;13.326;2023-04-07T02:02:51;101491.94;;;6.82;52.08
15750;BME280;7976;52.526;13.326;2023-04-07T02:05:21;101485.03;;;6.80;52.30
15750;BME280;7976;52.526;13.326;2023-04-07T02:07:53;101480.72;;;6.76;52.23
15750;BME280;7976;52.526;13.326;2023-04-07T02:10:24;101483.34;;;6.74;52.13
15750;BME280;7976;52.526;13.326;2023-04-07T02:12:57;101478.19;;;6.71;52.61
15750;BME280;7976;52.526;13.326;2023-04-07T02:15:27;101479.06;;;6.69;52.61
15750;BME280;7976;52.526;13.326;2023-04-07T02:17:58;101475.63;;;6.65;52.59
15750;BME280;7976;52.526;13.326;2023-04-07T02:20:28;101473.03;;;6.65;52.81
15750;BME280;7976;52.526;13.326;2023-04-07T02:22:57;101469.59;;;6.60;52.44
15750;BME280;7976;52.526;13.326;2023-04-07T02:25:26;101469.63;;;6.57;52.84
15750;BME280;7976;52.526;13.326;2023-04-07T02:27:55;101470.50;;;6.58;53.08
15750;BME280;7976;52.526;13.326;2023-04-07T02:30:23;101472.25;;;6.57;53.39
15750;BME280;7976;52.526;13.326;2023-04-07T02:32:51;101471.38;;;6.55;53.32
15750;BME280;7976;52.526;13.326;2023-04-07T02:35:19;101470.50;;;6.58;53.38
15750;BME280;7976;52.526;13.326;2023-04-07T02:37:46;101473.09;;;6.58;53.32
15750;BME280;7976;52.526;13.326;2023-04-07T02:40:14;101462.75;;;6.55;53.71
15750;BME280;7976;52.526;13.326;2023-04-07T02:42:41;101461.88;;;6.54;53.78
15750;BME280;7976;52.526;13.326;2023-04-07T02:45:09;101465.34;;;6.52;53.61
15750;BME280;7976;52.526;13.326;2023-04-07T02:47:38;101458.44;;;6.49;53.83
15750;BME280;7976;52.526;13.326;2023-04-07T02:50:07;101461.06;;;6.49;53.90
15750;BME280;7976;52.526;13.326;2023-04-07T02:52:37;101457.63;;;6.44;54.10
15750;BME280;7976;52.526;13.326;2023-04-07T02:55:10;101462.78;;;6.49;54.18
15750;BME280;7976;52.526;13.326;2023-04-07T02:57:41;101447.22;;;6.44;54.42
15750;BME280;7976;52.526;13.326;2023-04-07T03:00:30;101461.91;;;6.51;55.10
15750;BME280;7976;52.526;13.326;2023-04-07T03:03:17;101462.78;;;6.49;55.19
15750;BME280;7976;52.526;13.326;2023-04-07T03:05:57;101455.03;;;6.44;55.55
15750;BME280;7976;52.526;13.326;2023-04-07T03:08:24;101453.31;;;6.42;55.48
15750;BME280;7976;52.526;13.326;2023-04-07T03:10:52;101469.78;;;6.42;55.54
15750;BME280;7976;52.526;13.326;2023-04-07T03:13:25;101462.84;;;6.38;56.00
15750;BME280;7976;52.526;13.326;2023-04-07T03:15:54;101444.75;;;6.29;55.91
15750;BME280;7976;52.526;13.326;2023-04-07T03:18:22;101455.13;;;6.33;56.02
15750;BME280;7976;52.526;13.326;2023-04-07T03:20:52;101443.91;;;6.27;55.84
15750;BME280;7976;52.526;13.326;2023-04-07T03:23:21;101440.47;;;6.25;55.87
15750;BME280;7976;52.526;13.326;2023-04-07T03:25:52;101443.97;;;6.22;56.26
15750;BME280;7976;52.526;13.326;2023-04-07T03:28:20;101457.72;;;6.32;56.67
15750;BME280;7976;52.526;13.326;2023-04-07T03:30:47;101453.41;;;6.31;57.03
15750;BME280;7976;52.526;13.326;2023-04-07T03:33:14;101431.81;;;6.26;57.18
15750;BME280;7976;52.526;13.326;2023-04-07T03:35:42;101435.28;;;6.22;57.56
15750;BME280;7976;52.526;13.326;2023-04-07T03:38:11;101445.66;;;6.25;57.59
15750;BME280;7976;52.526;13.326;2023-04-07T03:40:40;101437.03;;;6.20;57.93
15750;BME280;7976;52.526;13.326;2023-04-07T03:43:07;101444.84;;;6.18;58.22
15750;BME280;7976;52.526;13.326;2023-04-07T03:45:39;101449.19;;;6.15;58.72
15750;BME280;7976;52.526;13.326;2023-04-07T03:48:07;101436.28;;;6.07;58.51
15750;BME280;7976;52.526;13.326;2023-04-07T03:50:42;101434.53;;;6.11;58.75
15750;BME280;7976;52.526;13.326;2023-04-07T03:53:13;101434.47;;;6.17;58.79
15750;BME280;7976;52.526;13.326;2023-04-07T03:55:44;101447.47;;;6.15;58.71
15750;BME280;7976;52.526;13.326;2023-04-07T03:58:19;101427.59;;;6.10;59.08
15750;BME280;7976;52.526;13.326;2023-04-07T04:00:47;101425.00;;;6.10;59.65
15750;BME280;7976;52.526;13.326;2023-04-07T04:03:15;101429.34;;;6.08;59.57
15750;BME280;7976;52.526;13.326;2023-04-07T04:05:52;101432.75;;;6.13;59.42
15750;BME280;7976;52.526;13.326;2023-04-07T04:08:26;101440.56;;;6.10;59.51
15750;BME280;7976;52.526;13.326;2023-04-07T04:10:55;101430.28;;;5.98;60.00
15750;BME280;7976;52.526;13.326;2023-04-07T04:13:27;101443.31;;;5.93;60.27
15750;BME280;7976;52.526;13.326;2023-04-07T04:15:57;101447.69;;;5.87;60.42
15750;BME280;7976;52.526;13.326;2023-04-07T04:18:24;101445.13;;;5.75;60.74
15750;BME280;7976;52.526;13.326;2023-04-07T04:20:53;101444.31;;;5.67;60.81
15750;BME280;7976;52.526;13.326;2023-04-07T04:23:20;101449.50;;;5.68;61.11
15750;BME280;7976;52.526;13.326;2023-04-07T04:25:51;101450.38;;;5.61;61.47
15750;BME280;7976;52.526;13.326;2023-04-07T04:28:19;101445.28;;;5.46;61.55
15750;BME280;7976;52.526;13.326;2023-04-07T04:30:49;101439.25;;;5.40;61.49
15750;BME280;7976;52.526;13.326;2023-04-07T04:33:17;101443.63;;;5.35;61.92
15750;BME280;7976;52.526;13.326;2023-04-07T04:35:53;101447.91;;;5.42;61.94
15750;BME280;7976;52.526;13.326;2023-04-07T04:38:21;101442.72;;;5.40;62.30
15750;BME280;7976;52.526;13.326;2023-04-07T04:40:56;101449.63;;;5.46;61.95
15750;BME280;7976;52.526;13.326;2023-04-07T04:43:29;101457.44;;;5.44;62.12
15750;BME280;7976;52.526;13.326;2023-04-07T04:45:58;101456.56;;;5.44;62.16
15750;BME280;7976;52.526;13.326;2023-04-07T04:48:27;101439.31;;;5.34;62.37
15750;BME280;7976;52.526;13.326;2023-04-07T04:50:54;101445.34;;;5.36;62.12
15750;BME280;7976;52.526;13.326;2023-04-07T04:53:22;101462.59;;;5.43;62.31
15750;BME280;7976;52.526;13.326;2023-04-07T04:55:56;101450.50;;;5.40;62.17
15750;BME280;7976;52.526;13.326;2023-04-07T04:58:35;101460.03;;;5.40;62.13
15750;BME280;7976;52.526;13.326;2023-04-07T05:01:02;101468.69;;;5.39;62.21
15750;BME280;7976;52.526;13.326;2023-04-07T05:03:40;101464.34;;;5.38;62.48
15750;BME280;7976;52.526;13.326;2023-04-07T05:06:14;101449.72;;;5.31;62.58
15750;BME280;7976;52.526;13.326;2023-04-07T05:08:43;101457.50;;;5.31;62.31
15750;BME280;7976;52.526;13.326;2023-04-07T05:11:10;101461.78;;;5.33;62.46
15750;BME280;7976;52.526;13.326;2023-04-07T05:13:39;101466.97;;;5.41;62.36
15750;BME280;7976;52.526;13.326;2023-04-07T05:16:07;101460.00;;;5.46;62.31
15750;BME280;7976;52.526;13.326;2023-04-07T05:18:35;101471.22;;;5.48;62.08
15750;BME280;7976;52.526;13.326;2023-04-07T05:21:03;101466.88;;;5.56;62.04
15750;BME280;7976;52.526;13.326;2023-04-07T05:23:35;101468.56;;;5.66;61.69
15750;BME280;7976;52.526;13.326;2023-04-07T05:26:04;101465.97;;;5.64;61.41
15750;BME280;7976;52.526;13.326;2023-04-07T05:28:32;101465.09;;;5.67;61.31
15750;BME280;7976;52.526;13.326;2023-04-07T05:31:04;101464.19;;;5.72;60.92
15750;BME280;7976;52.526;13.326;2023-04-07T05:33:32;101465.03;;;5.73;61.00
15750;BME280;7976;52.526;13.326;2023-04-07T05:36:01;101460.75;;;5.69;61.45
15750;BME280;7976;52.526;13.326;2023-04-07T05:38:30;101463.31;;;5.72;61.38
15750;BME280;7976;52.526;13.326;2023-04-07T05:41:02;101462.44;;;5.71;61.24
15750;BME280;7976;52.526;13.326;2023-04-07T05:43:33;101450.38;;;5.69;61.17
15750;BME280;7976;52.526;13.326;2023-04-07T05:46:00;101455.53;;;5.72;61.31
15750;BME280;7976;52.526;13.326;2023-04-07T05:48:29;101455.53;;;5.73;61.40
15750;BME280;7976;52.526;13.326;2023-04-07T05:50:57;101457.22;;;5.80;61.27
15750;BME280;7976;52.526;13.326;2023-04-07T05:53:26;101456.38;;;5.77;61.32
15750;BME280;7976;52.526;13.326;2023-04-07T05:55:53;101450.31;;;5.73;61.44
15750;BME280;7976;52.526;13.326;2023-04-07T05:58:38;101462.41;;;5.79;61.56
15750;BME280;7976;52.526;13.326;2023-04-07T06:01:05;101449.47;;;5.76;61.57
15750;BME280;7976;52.526;13.326;2023-04-07T06:03:34;101463.28;;;5.85;61.51
15750;BME280;7976;52.526;13.326;2023-04-07T06:06:20;101459.84;;;5.74;60.98
15750;BME280;7976;52.526;13.326;2023-04-07T06:08:47;101478.03;;;5.76;61.54
15750;BME280;7976;52.526;13.326;2023-04-07T06:11:14;101473.69;;;5.75;61.28
15750;BME280;7976;52.526;13.326;2023-04-07T06:13:42;101475.44;;;5.68;61.33
15750;BME280;7976;52.526;13.326;2023-04-07T06:16:09;101468.53;;;5.69;61.72
15750;BME280;7976;52.526;13.326;2023-04-07T06:18:38;101481.47;;;5.82;61.76
15750;BME280;7976;52.526;13.326;2023-04-07T06:21:06;101484.03;;;5.87;61.44
15750;BME280;7976;52.526;13.326;2023-04-07T06:23:34;101482.25;;;5.95;61.27
15750;BME280;7976;52.526;13.326;2023-04-07T06:26:07;101468.41;;;5.96;61.15
15750;BME280;7976;52.526;13.326;2023-04-07T06:28:36;101464.88;;;6.06;60.83
15750;BME280;7976;52.526;13.326;2023-04-07T06:31:03;101484.69;;;6.20;60.68
15750;BME280;7976;52.526;13.326;2023-04-07T06:33:31;101478.63;;;6.17;60.68
15750;BME280;7976;52.526;13.326;2023-04-07T06:35:59;101483.00;;;6.13;60.91
15750;BME280;7976;52.526;13.326;2023-04-07T06:38:28;101490.88;;;6.00;61.27
15750;BME280;7976;52.526;13.326;2023-04-07T06:40:55;101485.69;;;5.97;61.29
15750;BME280;7976;52.526;13.326;2023-04-07T06:43:22;101472.72;;;5.97;61.78
15750;BME280;7976;52.526;13.326;2023-04-07T06:45:55;101477.84;;;6.03;61.54
15750;BME280;7976;52.526;13.326;2023-04-07T06:48:22;101477.84;;;6.09;61.76
15750;BME280;7976;52.526;13.326;2023-04-07T06:50:49;101486.41;;;6.20;61.92
15750;BME280;7976;52.526;13.326;2023-04-07T06:53:18;101485.53;;;6.18;61.50
15750;BME280;7976;52.526;13.326;2023-04-07T06:55:45;101483.75;;;6.27;61.60
15750;BME280;7976;52.526;13.326;2023-04-07T06:58:12;101483.72;;;6.32;61.53
15750;BME280;7976;52.526;13.326;2023-04-07T07:00:39;101476.81;;;6.28;61.65
15750;BME280;7976;52.526;13.326;2023-04-07T07:03:06;101480.28;;;6.28;61.41
15750;BME280;7976;52.526;13.326;2023-04-07T07:05:33;101489.72;;;6.40;61.41
15750;BME280;7976;52.526;13.326;2023-04-07T07:08:00;101485.47;;;6.30;61.48
15750;BME280;7976;52.526;13.326;2023-04-07T07:10:29;101480.34;;;6.22;61.67
15750;BME280;7976;52.526;13.326;2023-04-07T07:12:56;101488.91;;;6.32;61.83
15750;BME280;7976;52.526;13.326;2023-04-07T07:15:23;101495.69;;;6.48;61.94
15750;BME280;7976;52.526;13.326;2023-04-07T07:17:50;101493.03;;;6.57;61.62
15750;BME280;7976;52.526;13.326;2023-04-07T07:20:18;101491.28;;;6.59;61.83
15750;BME280;7976;52.526;13.326;2023-04-07T07:22:47;101487.75;;;6.66;61.74
15750;BME280;7976;52.526;13.326;2023-04-07T07:25:16;101492.00;;;6.73;61.48
15750;BME280;7976;52.526;13.326;2023-04-07T07:27:44;101494.47;;;6.87;61.45
15750;BME280;7976;52.526;13.326;2023-04-07T07:30:11;101503.13;;;6.90;60.94
15750;BME280;7976;52.526;13.326;2023-04-07T07:32:38;101502.22;;;6.94;60.85
15750;BME280;7976;52.526;13.326;2023-04-07T07:35:05;101499.53;;;7.00;60.96
15750;BME280;7976;52.526;13.326;2023-04-07T07:37:40;101497.75;;;7.07;60.21
15750;BME280;7976;52.526;13.326;2023-04-07T07:40:09;101497.53;;;7.23;59.31
15750;BME280;7976;52.526;13.326;2023-04-07T07:42:36;101507.81;;;7.37;58.23
15750;BME280;7976;52.526;13.326;2023-04-07T07:45:06;101503.31;;;7.49;57.04
15750;BME280;7976;52.526;13.326;2023-04-07T07:47:33;101508.41;;;7.60;56.05
15750;BME280;7976;52.526;13.326;2023-04-07T07:50:02;101513.44;;;7.72;55.70
15750;BME280;7976;52.526;13.326;2023-04-07T07:52:30;101506.44;;;7.79;55.39
15750;BME280;7976;52.526;13.326;2023-04-07T07:54:59;101503.72;;;7.86;54.93
15750;BME280;7976;52.526;13.326;2023-04-07T07:57:26;101500.13;;;7.95;54.49
15750;BME280;7976;52.526;13.326;2023-04-07T07:59:53;101506.94;;;8.03;53.78
15750;BME280;7976;52.526;13.326;2023-04-07T08:02:26;101509.47;;;8.08;53.22
15750;BME280;7976;52.526;13.326;2023-04-07T08:04:59;101496.59;;;7.99;52.81
15750;BME280;7976;52.526;13.326;2023-04-07T08:07:28;101508.69;;;8.03;52.21
15750;BME280;7976;52.526;13.326;2023-04-07T08:09:55;101501.69;;;8.06;52.04
15750;BME280;7976;52.526;13.326;2023-04-07T08:12:23;101493.09;;;8.00;53.08
15750;BME280;7976;52.526;13.326;2023-04-07T08:14:54;101510.50;;;7.98;53.89
15750;BME280;7976;52.526;13.326;2023-04-07T08:17:27;101514.03;;;7.92;54.44
15750;BME280;7976;52.526;13.326;2023-04-07T08:19:56;101508.81;;;7.94;54.92
15750;BME280;7976;52.526;13.326;2023-04-07T08:22:33;101507.00;;;8.00;54.63
15750;BME280;7976;52.526;13.326;2023-04-07T08:25:01;101504.97;;;8.19;54.20
15750;BME280;7976;52.526;13.326;2023-04-07T08:27:28;101502.97;;;8.36;52.97
15750;BME280;7976;52.526;13.326;2023-04-07T08:30:00;101494.91;;;8.51;51.66
15750;BME280;7976;52.526;13.326;2023-04-07T08:32:36;101502.47;;;8.66;49.78
15750;BME280;7976;52.526;13.326;2023-04-07T08:35:04;101508.34;;;8.80;49.23
15750;BME280;7976;52.526;13.326;2023-04-07T08:37:32;101515.13;;;8.90;48.38
15750;BME280;7976;52.526;13.326;2023-04-07T08:40:01;101507.06;;;9.02;47.79
15750;BME280;7976;52.526;13.326;2023-04-07T08:42:30;101501.81;;;9.04;47.18
15750;BME280;7976;52.526;13.326;2023-04-07T08:45:03;101508.66;;;9.11;46.85
15750;BME280;7976;52.526;13.326;2023-04-07T08:47:32;101509.56;;;9.08;46.61
15750;BME280;7976;52.526;13.326;2023-04-07T08:50:05;101512.31;;;9.01;46.01
15750;BME280;7976;52.526;13.326;2023-04-07T08:52:37;101515.84;;;8.98;45.72
15750;BME280;7976;52.526;13.326;2023-04-07T08:55:08;101512.41;;;8.95;45.21
15750;BME280;7976;52.526;13.326;2023-04-07T08:57:36;101514.25;;;8.89;45.51
15750;BME280;7976;52.526;13.326;2023-04-07T09:00:04;101519.50;;;8.88;45.79
15750;BME280;7976;52.526;13.326;2023-04-07T09:02:32;101530.75;;;8.92;46.26
15750;BME280;7976;52.526;13.326;2023-04-07T09:05:04;101520.28;;;8.93;46.46
15750;BME280;7976;52.526;13.326;2023-04-07T09:07:33;101530.59;;;9.01;46.75
15750;BME280;7976;52.526;13.326;2023-04-07T09:10:01;101534.91;;;9.02;47.06
15750;BME280;7976;52.526;13.326;2023-04-07T09:12:29;101534.00;;;9.04;47.25
15750;BME280;7976;52.526;13.326;2023-04-07T09:14:56;101536.66;;;9.01;46.99
15750;BME280;7976;52.526;13.326;2023-04-07T09:17:25;101541.88;;;9.01;46.98
15750;BME280;7976;52.526;13.326;2023-04-07T09:19:55;101532.28;;;9.03;46.30
15750;BME280;7976;52.526;13.326;2023-04-07T09:22:38;101528.81;;;9.01;45.09
15750;BME280;7976;52.526;13.326;2023-04-07T09:25:18;101525.56;;;8.90;44.17
15750;BME280;7976;52.526;13.326;2023-04-07T09:28:00;101522.22;;;8.82;45.43
15750;BME280;7976;52.526;13.326;2023-04-07T09:30:30;101524.81;;;8.83;45.90
15750;BME280;7976;52.526;13.326;2023-04-07T09:32:58;101525.69;;;8.84;46.75
15750;BME280;7976;52.526;13.326;2023-04-07T09:35:26;101535.28;;;8.82;46.88
15750;BME280;7976;52.526;13.326;2023-04-07T09:38:03;101539.78;;;8.71;47.02
15750;BME280;7976;52.526;13.326;2023-04-07T09:40:31;101540.84;;;8.59;46.92
15750;BME280;7976;52.526;13.326;2023-04-07T09:42:58;101541.97;;;8.45;47.20
15750;BME280;7976;52.526;13.326;2023-04-07T09:45:25;101537.81;;;8.33;47.42
15750;BME280;7976;52.526;13.326;2023-04-07T09:47:53;101537.75;;;8.36;47.49
15750;BME280;7976;52.526;13.326;2023-04-07T09:50:31;101542.88;;;8.44;47.33
15750;BME280;7976;52.526;13.326;2023-04-07T09:52:59;101544.50;;;8.49;47.44
15750;BME280;7976;52.526;13.326;2023-04-07T09:55:30;101540.25;;;8.44;47.26
15750;BME280;7976;52.526;13.326;2023-04-07T09:57:57;101548.91;;;8.44;46.95
15750;BME280;7976;52.526;13.326;2023-04-07T10:00:24;101539.22;;;8.52;46.77
15750;BME280;7976;52.526;13.326;2023-04-07T10:02:51;101544.38;;;8.57;46.39
15750;BME280;7976;52.526;13.326;2023-04-07T10:05:19;101540.84;;;8.59;46.31
15750;BME280;7976;52.526;13.326;2023-04-07T10:07:47;101550.44;;;8.57;46.47
15750;BME280;7976;52.526;13.326;2023-04-07T10:10:14;101553.94;;;8.58;46.57
15750;BME280;7976;52.526;13.326;2023-04-07T10:12:44;101542.63;;;8.57;46.57
15750;BME280;7976;52.526;13.326;2023-04-07T10:15:12;101543.56;;;8.53;46.22
15750;BME280;7976;52.526;13.326;2023-04-07T10:17:45;101544.44;;;8.52;46.38
15750;BME280;7976;52.526;13.326;2023-04-07T10:20:16;101544.50;;;8.49;46.20
15750;BME280;7976;52.526;13.326;2023-04-07T10:22:44;101545.34;;;8.51;46.16
15750;BME280;7976;52.526;13.326;2023-04-07T10:25:17;101538.47;;;8.46;46.35
15750;BME280;7976;52.526;13.326;2023-04-07T10:27:50;101543.69;;;8.46;46.30
15750;BME280;7976;52.526;13.326;2023-04-07T10:30:24;101543.72;;;8.43;46.11
15750;BME280;7976;52.526;13.326;2023-04-07T10:32:53;101545.56;;;8.38;46.19
15750;BME280;7976;52.526;13.326;2023-04-07T10:35:20;101549.91;;;8.36;46.46
15750;BME280;7976;52.526;13.326;2023-04-07T10:38:11;101543.72;;;8.43;47.00
15750;BME280;7976;52.526;13.326;2023-04-07T10:40:41;101543.69;;;8.44;46.93
15750;BME280;7976;52.526;13.326;2023-04-07T10:43:09;101549.78;;;8.45;47.29
15750;BME280;7976;52.526;13.326;2023-04-07T10:45:55;101535.88;;;8.44;47.90
15750;BME280;7976;52.526;13.326;2023-04-07T10:48:25;101541.91;;;8.48;48.02
15750;BME280;7976;52.526;13.326;2023-04-07T10:51:14;101543.53;;;8.56;48.29
15750;BME280;7976;52.526;13.326;2023-04-07T10:54:19;101538.06;;;8.70;49.02
15750;BME280;7976;52.526;13.326;2023-04-07T10:57:07;101538.00;;;8.74;49.09
15750;BME280;7976;52.526;13.326;2023-04-07T11:00:14;101536.34;;;8.70;49.50
15750;BME280;7976;52.526;13.326;2023-04-07T11:02:40;101533.78;;;8.66;50.58
15750;BME280;7976;52.526;13.326;2023-04-07T11:05:18;101535.56;;;8.65;51.37
15750;BME280;7976;52.526;13.326;2023-04-07T11:07:51;101547.00;;;8.57;52.66
15750;BME280;7976;52.526;13.326;2023-04-07T11:10:22;101542.78;;;8.48;53.86
15750;BME280;7976;52.526;13.326;2023-04-07T11:13:01;101547.41;;;8.30;55.54
15750;BME280;7976;52.526;13.326;2023-04-07T11:15:30;101542.25;;;8.27;57.07
15750;BME280;7976;52.526;13.326;2023-04-07T11:18:16;101546.50;;;8.32;58.41
15750;BME280;7976;52.526;13.326;2023-04-07T11:20:46;101537.84;;;8.30;60.01
15750;BME280;7976;52.526;13.326;2023-04-07T11:23:15;101536.19;;;8.25;60.94
15750;BME280;7976;52.526;13.326;2023-04-07T11:25:45;101538.94;;;8.13;61.84
15750;BME280;7976;52.526;13.326;2023-04-07T11:28:13;101536.38;;;8.10;63.48
15750;BME280;7976;52.526;13.326;2023-04-07T11:30:47;101530.22;;;8.15;64.94
15750;BME280;7976;52.526;13.326;2023-04-07T11:33:21;101535.38;;;8.18;66.30
15750;BME280;7976;52.526;13.326;2023-04-07T11:35:54;101535.41;;;8.17;66.82
15750;BME280;7976;52.526;13.326;2023-04-07T11:38:23;101538.88;;;8.16;67.47
15750;BME280;7976;52.526;13.326;2023-04-07T11:40:52;101528.38;;;8.22;68.09
15750;BME280;7976;52.526;13.326;2023-04-07T11:43:22;101530.09;;;8.23;69.38
15750;BME280;7976;52.526;13.326;2023-04-07T11:46:16;101530.09;;;8.26;70.31
15750;BME280;7976;52.526;13.326;2023-04-07T11:48:44;101530.84;;;8.34;70.92
15750;BME280;7976;52.526;13.326;2023-04-07T11:51:16;101530.72;;;8.41;71.86
15750;BME280;7976;52.526;13.326;2023-04-07T11:53:44;101532.44;;;8.44;71.97
15750;BME280;7976;52.526;13.326;2023-04-07T11:56:14;101534.34;;;8.31;72.79
15750;BME280;7976;52.526;13.326;2023-04-07T11:58:47;101533.03;;;8.02;73.65
15750;BME280;7976;52.526;13.326;2023-04-07T12:01:15;101535.78;;;7.91;74.93
15750;BME280;7976;52.526;13.326;2023-04-07T12:03:56;101532.47;;;7.79;75.45
15750;BME280;7976;52.526;13.326;2023-04-07T12:06:28;101543.00;;;7.70;75.74
15750;BME280;7976;52.526;13.326;2023-04-07T12:08:55;101539.63;;;7.61;76.37
15750;BME280;7976;52.526;13.326;2023-04-07T12:11:23;101538.81;;;7.58;76.90
15750;BME280;7976;52.526;13.326;2023-04-07T12:13:51;101540.56;;;7.56;77.93
15750;BME280;7976;52.526;13.326;2023-04-07T12:16:19;101530.13;;;7.57;78.08
15750;BME280;7976;52.526;13.326;2023-04-07T12:18:46;101535.25;;;7.67;78.55
15750;BME280;7976;52.526;13.326;2023-04-07T12:21:13;101535.06;;;7.77;78.97
15750;BME280;7976;52.526;13.326;2023-04-07T12:23:40;101538.50;;;7.84;79.14
15750;BME280;7976;52.526;13.326;2023-04-07T12:26:07;101541.97;;;7.83;79.56
15750;BME280;7976;52.526;13.326;2023-04-07T12:28:36;101536.03;;;7.73;79.53
15750;BME280;7976;52.526;13.326;2023-04-07T12:31:03;101536.97;;;7.66;80.03
15750;BME280;7976;52.526;13.326;2023-04-07T12:33:31;101534.44;;;7.58;80.75
15750;BME280;7976;52.526;13.326;2023-04-07T12:35:58;101539.69;;;7.55;81.27
15750;BME280;7976;52.526;13.326;2023-04-07T12:38:25;101531.03;;;7.56;81.59
15750;BME280;7976;52.526;13.326;2023-04-07T12:40:53;101524.13;;;7.52;81.97
15750;BME280;7976;52.526;13.326;2023-04-07T12:43:20;101537.13;;;7.52;82.27
15750;BME280;7976;52.526;13.326;2023-04-07T12:45:47;101530.25;;;7.47;82.71
15750;BME280;7976;52.526;13.326;2023-04-07T12:48:13;101534.63;;;7.46;83.01
15750;BME280;7976;52.526;13.326;2023-04-07T12:50:42;101537.25;;;7.42;83.40
15750;BME280;7976;52.526;13.326;2023-04-07T12:53:09;101535.63;;;7.35;83.37
15750;BME280;7976;52.526;13.326;2023-04-07T12:55:36;101531.34;;;7.29;84.00
15750;BME280;7976;52.526;13.326;2023-04-07T12:58:03;101543.41;;;7.33;84.51
15750;BME280;7976;52.526;13.326;2023-04-07T13:00:30;101537.28;;;7.39;84.23
15750;BME280;7976;52.526;13.326;2023-04-07T13:02:57;101527.78;;;7.36;84.47
15750;BME280;7976;52.526;13.326;2023-04-07T13:05:24;101531.22;;;7.37;84.74
15750;BME280;7976;52.526;13.326;2023-04-07T13:07:52;101527.63;;;7.47;84.68
15750;BME280;7976;52.526;13.326;2023-04-07T13:10:19;101528.34;;;7.62;84.64
15750;BME280;7976;52.526;13.326;2023-04-07T13:12:46;101524.72;;;7.73;84.49
15750;BME280;7976;52.526;13.326;2023-04-07T13:15:14;101527.22;;;7.82;84.08
15750;BME280;7976;52.526;13.326;2023-04-07T13:17:40;101528.22;;;7.72;84.03